sensor_id;sensor_type;location;lat;lon;timestamp;pressure;altitude;pressure_sealevel;temperature;humidity
49342;BME280;35210;41.606;-87.602;2023-04-25T00:02:03;99963.00;;;12.98;36.45
49342;BME280;35210;41.606;-87.602;2023-04-25T00:04:33;99958.69;;;13.08;36.83
49342;BME280;35210;41.606;-87.602;2023-04-25T00:07:01;99964.47;;;13.13;36.24
49342;BME280;35210;41.606;-87.602;2023-04-25T00:09:29;99961.09;;;13.11;35.57
49342;BME280;35210;41.606;-87.602;2023-04-25T00:12:00;99959.88;;;13.04;35.70
49342;BME280;35210;41.606;-87.602;2023-04-25T00:14:29;99955.53;;;13.03;36.33
49342;BME280;35210;41.606;-87.602;2023-04-25T00:16:59;99950.59;;;12.99;35.75
49342;BME280;35210;41.606;-87.602;2023-04-25T00:19:30;99953.38;;;12.97;36.49
49342;BME280;35210;41.606;-87.602;2023-04-25T00:21:58;99958.44;;;13.00;36.28
49342;BME280;35210;41.606;-87.602;2023-04-25T00:24:27;99959.75;;;12.95;35.05
49342;BME280;35210;41.606;-87.602;2023-04-25T00:26:55;99955.91;;;12.99;35.13
49342;BME280;35210;41.606;-87.602;2023-04-25T00:29:24;99957.22;;;12.93;35.62
49342;BME280;35210;41.606;-87.602;2023-04-25T00:31:52;99957.22;;;12.93;35.20
49342;BME280;35210;41.606;-87.602;2023-04-25T00:34:20;99961.69;;;12.93;35.75
49342;BME280;35210;41.606;-87.602;2023-04-25T00:36:49;99957.84;;;12.97;34.85
49342;BME280;35210;41.606;-87.602;2023-04-25T00:39:17;99961.06;;;12.78;35.55
49342;BME280;35210;41.606;-87.602;2023-04-25T00:41:45;99957.09;;;12.61;36.60
49342;BME280;35210;41.606;-87.602;2023-04-25T00:44:15;99960.34;;;12.65;36.26
49342;BME280;35210;41.606;-87.602;2023-04-25T00:46:47;99948.31;;;12.72;35.87
49342;BME280;35210;41.606;-87.602;2023-04-25T00:49:16;99954.81;;;12.79;36.73
49342;BME280;35210;41.606;-87.602;2023-04-25T00:51:44;99956.25;;;12.83;36.97
49342;BME280;35210;41.606;-87.602;2023-04-25T00:54:13;99959.38;;;12.77;37.23
49342;BME280;35210;41.606;-87.602;2023-04-25T00:56:42;99960.09;;;12.79;37.16
49342;BME280;35210;41.606;-87.602;2023-04-25T00:59:11;99954.81;;;12.79;37.12
49342;BME280;35210;41.606;-87.602;2023-04-25T01:01:41;99953.38;;;12.75;37.77
49342;BME280;35210;41.606;-87.602;2023-04-25T01:04:11;99956.72;;;12.66;38.37
49342;BME280;35210;41.606;-87.602;2023-04-25T01:06:41;99958.41;;;12.56;39.18
49342;BME280;35210;41.606;-87.602;2023-04-25T01:09:09;99960.34;;;12.54;38.84
49342;BME280;35210;41.606;-87.602;2023-04-25T01:11:38;99963.22;;;12.50;38.88
49342;BME280;35210;41.606;-87.602;2023-04-25T01:14:07;99960.34;;;12.54;38.82
49342;BME280;35210;41.606;-87.602;2023-04-25T01:16:35;99956.97;;;12.52;39.40
49342;BME280;35210;41.606;-87.602;2023-04-25T01:19:05;99954.69;;;12.58;39.06
49342;BME280;35210;41.606;-87.602;2023-04-25T01:21:39;99952.50;;;12.52;38.65
49342;BME280;35210;41.606;-87.602;2023-04-25T01:24:07;99962.28;;;12.52;38.31
49342;BME280;35210;41.606;-87.602;2023-04-25T01:26:36;99948.28;;;12.49;38.80
49342;BME280;35210;41.606;-87.602;2023-04-25T01:29:06;99961.31;;;12.53;38.46
49342;BME280;35210;41.606;-87.602;2023-04-25T01:31:35;99964.06;;;12.51;38.83
49342;BME280;35210;41.606;-87.602;2023-04-25T01:34:04;99964.06;;;12.51;38.89
49342;BME280;35210;41.606;-87.602;2023-04-25T01:36:32;99961.78;;;12.46;38.83
49342;BME280;35210;41.606;-87.602;2023-04-25T01:39:03;99967.81;;;12.48;39.15
49342;BME280;35210;41.606;-87.602;2023-04-25T01:41:31;99961.53;;;12.49;39.53
49342;BME280;35210;41.606;-87.602;2023-04-25T01:44:00;99971.28;;;12.49;40.17
49342;BME280;35210;41.606;-87.602;2023-04-25T01:46:29;99969.00;;;12.44;39.93
49342;BME280;35210;41.606;-87.602;2023-04-25T01:48:57;99960.19;;;12.44;40.04
49342;BME280;35210;41.606;-87.602;2023-04-25T01:51:25;99962.25;;;12.40;40.50
49342;BME280;35210;41.606;-87.602;2023-04-25T01:53:54;99969.94;;;12.43;40.99
49342;BME280;35210;41.606;-87.602;2023-04-25T01:56:24;99970.19;;;12.40;40.75
49342;BME280;35210;41.606;-87.602;2023-04-25T01:58:52;99971.16;;;12.39;40.64
49342;BME280;35210;41.606;-87.602;2023-04-25T02:01:21;99970.31;;;12.39;41.31
49342;BME280;35210;41.606;-87.602;2023-04-25T02:03:49;99965.13;;;12.37;40.57
49342;BME280;35210;41.606;-87.602;2023-04-25T02:06:17;99974.03;;;12.36;40.58
49342;BME280;35210;41.606;-87.602;2023-04-25T02:08:45;99977.75;;;12.34;41.06
49342;BME280;35210;41.606;-87.602;2023-04-25T02:11:13;99977.03;;;12.32;41.35
49342;BME280;35210;41.606;-87.602;2023-04-25T02:13:43;99981.69;;;12.28;40.95
49342;BME280;35210;41.606;-87.602;2023-04-25T02:16:11;99985.31;;;12.27;41.31
49342;BME280;35210;41.606;-87.602;2023-04-25T02:18:39;99987.22;;;12.25;41.50
49342;BME280;35210;41.606;-87.602;2023-04-25T02:21:08;99981.94;;;12.25;41.80
49342;BME280;35210;41.606;-87.602;2023-04-25T02:23:37;99972.41;;;12.23;41.80
49342;BME280;35210;41.606;-87.602;2023-04-25T02:26:05;99971.19;;;12.15;42.17
49342;BME280;35210;41.606;-87.602;2023-04-25T02:28:34;99971.19;;;12.15;41.91
49342;BME280;35210;41.606;-87.602;2023-04-25T02:31:03;99976.81;;;12.11;42.31
49342;BME280;35210;41.606;-87.602;2023-04-25T02:33:31;99967.19;;;12.10;41.87
49342;BME280;35210;41.606;-87.602;2023-04-25T02:36:00;99977.16;;;12.06;42.43
49342;BME280;35210;41.606;-87.602;2023-04-25T02:38:28;99976.31;;;12.06;42.92
49342;BME280;35210;41.606;-87.602;2023-04-25T02:40:56;99976.09;;;12.09;43.82
49342;BME280;35210;41.606;-87.602;2023-04-25T02:43:25;99977.66;;;12.11;43.45
49342;BME280;35210;41.606;-87.602;2023-04-25T02:45:53;99981.16;;;12.12;44.02
49342;BME280;35210;41.606;-87.602;2023-04-25T02:48:23;99972.03;;;12.16;43.45
49342;BME280;35210;41.606;-87.602;2023-04-25T02:50:51;99967.69;;;12.15;42.35
49342;BME280;35210;41.606;-87.602;2023-04-25T02:53:20;99964.19;;;12.14;42.72
49342;BME280;35210;41.606;-87.602;2023-04-25T02:55:48;99964.19;;;12.14;42.66
49342;BME280;35210;41.606;-87.602;2023-04-25T02:58:16;99965.28;;;12.12;43.61
49342;BME280;35210;41.606;-87.602;2023-04-25T03:00:44;99969.44;;;12.03;44.94
49342;BME280;35210;41.606;-87.602;2023-04-25T03:03:12;99965.47;;;11.98;45.66
49342;BME280;35210;41.606;-87.602;2023-04-25T03:05:43;99970.97;;;11.95;45.10
49342;BME280;35210;41.606;-87.602;2023-04-25T03:08:12;99965.69;;;11.95;44.42
49342;BME280;35210;41.606;-87.602;2023-04-25T03:10:40;99973.63;;;11.95;42.68
49342;BME280;35210;41.606;-87.602;2023-04-25T03:13:09;99974.47;;;11.95;42.53
49342;BME280;35210;41.606;-87.602;2023-04-25T03:15:38;99977.97;;;11.96;41.50
49342;BME280;35210;41.606;-87.602;2023-04-25T03:18:06;99969.78;;;11.99;41.92
49342;BME280;35210;41.606;-87.602;2023-04-25T03:20:34;99986.53;;;11.99;42.22
49342;BME280;35210;41.606;-87.602;2023-04-25T03:23:04;99978.56;;;11.99;42.43
49342;BME280;35210;41.606;-87.602;2023-04-25T03:25:32;99978.69;;;11.98;42.73
49342;BME280;35210;41.606;-87.602;2023-04-25T03:28:01;99980.38;;;11.99;42.82
49342;BME280;35210;41.606;-87.602;2023-04-25T03:30:30;99977.72;;;11.99;42.62
49342;BME280;35210;41.606;-87.602;2023-04-25T03:32:58;99982.06;;;12.00;42.76
49342;BME280;35210;41.606;-87.602;2023-04-25T03:35:26;99975.81;;;12.01;42.65
49342;BME280;35210;41.606;-87.602;2023-04-25T03:37:54;99973.16;;;12.01;42.24
49342;BME280;35210;41.606;-87.602;2023-04-25T03:40:24;99971.47;;;12.00;40.58
49342;BME280;35210;41.606;-87.602;2023-04-25T03:42:52;99968.09;;;11.98;40.17
49342;BME280;35210;41.606;-87.602;2023-04-25T03:45:20;99964.00;;;11.94;40.13
49342;BME280;35210;41.606;-87.602;2023-04-25T03:47:48;99972.66;;;11.84;39.75
49342;BME280;35210;41.606;-87.602;2023-04-25T03:50:16;99968.66;;;11.79;39.60
49342;BME280;35210;41.606;-87.602;2023-04-25T03:52:44;99984.19;;;11.83;38.79
49342;BME280;35210;41.606;-87.602;2023-04-25T03:55:12;99972.03;;;11.68;38.26
49342;BME280;35210;41.606;-87.602;2023-04-25T03:57:43;99973.53;;;11.36;40.42
49342;BME280;35210;41.606;-87.602;2023-04-25T04:00:12;99961.59;;;11.30;40.91
49342;BME280;35210;41.606;-87.602;2023-04-25T04:02:42;99963.91;;;11.35;42.27
49342;BME280;35210;41.606;-87.602;2023-04-25T04:05:10;99971.75;;;11.24;43.26
49342;BME280;35210;41.606;-87.602;2023-04-25T04:07:38;99973.13;;;11.16;45.09
49342;BME280;35210;41.606;-87.602;2023-04-25T04:10:09;99988.53;;;10.99;48.16
49342;BME280;35210;41.606;-87.602;2023-04-25T04:12:37;99987.69;;;10.98;49.45
49342;BME280;35210;41.606;-87.602;2023-04-25T04:15:10;99997.72;;;10.80;49.82
49342;BME280;35210;41.606;-87.602;2023-04-25T04:17:38;100001.41;;;10.78;49.61
49342;BME280;35210;41.606;-87.602;2023-04-25T04:20:07;100008.19;;;10.82;50.68
49342;BME280;35210;41.606;-87.602;2023-04-25T04:22:35;100016.22;;;10.80;50.86
49342;BME280;35210;41.606;-87.602;2023-04-25T04:25:04;100014.41;;;10.81;53.03
49342;BME280;35210;41.606;-87.602;2023-04-25T04:27:33;100017.69;;;10.84;52.81
49342;BME280;35210;41.606;-87.602;2023-04-25T04:30:01;100004.59;;;10.96;55.73
49342;BME280;35210;41.606;-87.602;2023-04-25T04:32:31;99979.97;;;10.95;59.80
49342;BME280;35210;41.606;-87.602;2023-04-25T04:35:00;99973.00;;;10.94;59.64
49342;BME280;35210;41.606;-87.602;2023-04-25T04:37:29;99966.00;;;10.93;62.94
49342;BME280;35210;41.606;-87.602;2023-04-25T04:39:57;99962.31;;;10.96;63.78
49342;BME280;35210;41.606;-87.602;2023-04-25T04:42:25;99961.91;;;10.89;63.77
49342;BME280;35210;41.606;-87.602;2023-04-25T04:44:54;99952.59;;;10.83;63.23
49342;BME280;35210;41.606;-87.602;2023-04-25T04:47:22;99947.72;;;10.90;62.23
49342;BME280;35210;41.606;-87.602;2023-04-25T04:49:52;99963.38;;;10.93;63.34
49342;BME280;35210;41.606;-87.602;2023-04-25T04:52:20;99963.16;;;10.96;64.18
49342;BME280;35210;41.606;-87.602;2023-04-25T04:54:48;99966.53;;;10.98;65.55
49342;BME280;35210;41.606;-87.602;2023-04-25T04:57:16;99969.91;;;11.00;65.23
49342;BME280;35210;41.606;-87.602;2023-04-25T04:59:44;99969.69;;;11.03;66.53
49342;BME280;35210;41.606;-87.602;2023-04-25T05:02:12;99958.81;;;11.08;65.83
49342;BME280;35210;41.606;-87.602;2023-04-25T05:04:40;99961.34;;;11.09;65.96
49342;BME280;35210;41.606;-87.602;2023-04-25T05:07:09;99951.94;;;11.05;65.07
49342;BME280;35210;41.606;-87.602;2023-04-25T05:09:37;99948.78;;;11.00;64.93
49342;BME280;35210;41.606;-87.602;2023-04-25T05:12:06;99960.19;;;11.01;64.74
49342;BME280;35210;41.606;-87.602;2023-04-25T05:14:34;99968.63;;;11.06;65.44
49342;BME280;35210;41.606;-87.602;2023-04-25T05:17:02;99969.47;;;11.06;66.62
49342;BME280;35210;41.606;-87.602;2023-04-25T05:19:34;99968.75;;;11.04;66.33
49342;BME280;35210;41.606;-87.602;2023-04-25T05:22:02;99976.88;;;11.01;65.40
49342;BME280;35210;41.606;-87.602;2023-04-25T05:24:32;99980.50;;;11.00;65.31
49342;BME280;35210;41.606;-87.602;2023-04-25T05:27:00;99974.25;;;11.01;64.08
49342;BME280;35210;41.606;-87.602;2023-04-25T05:29:28;99962.50;;;11.05;64.88
49342;BME280;35210;41.606;-87.602;2023-04-25T05:31:56;99967.59;;;11.08;64.59
49342;BME280;35210;41.606;-87.602;2023-04-25T05:34:24;99967.59;;;11.08;64.34
49342;BME280;35210;41.606;-87.602;2023-04-25T05:36:53;99962.50;;;11.05;63.91
49342;BME280;35210;41.606;-87.602;2023-04-25T05:39:21;99963.69;;;11.01;64.59
49342;BME280;35210;41.606;-87.602;2023-04-25T05:41:51;99964.84;;;10.97;64.85
49342;BME280;35210;41.606;-87.602;2023-04-25T05:44:19;99965.59;;;10.99;64.81
49342;BME280;35210;41.606;-87.602;2023-04-25T05:46:47;99951.19;;;11.03;65.78
49342;BME280;35210;41.606;-87.602;2023-04-25T05:49:15;99945.69;;;11.06;65.55
49342;BME280;35210;41.606;-87.602;2023-04-25T05:51:43;99935.88;;;11.08;65.54
49342;BME280;35210;41.606;-87.602;2023-04-25T05:54:11;99939.47;;;11.07;65.30
49342;BME280;35210;41.606;-87.602;2023-04-25T05:56:39;99943.06;;;11.06;65.38
49342;BME280;35210;41.606;-87.602;2023-04-25T05:59:09;99931.81;;;11.15;66.64
49342;BME280;35210;41.606;-87.602;2023-04-25T06:01:37;99937.03;;;11.04;66.68
49342;BME280;35210;41.606;-87.602;2023-04-25T06:04:05;99935.25;;;10.92;67.06
49342;BME280;35210;41.606;-87.602;2023-04-25T06:06:33;99944.34;;;10.88;66.51
49342;BME280;35210;41.606;-87.602;2023-04-25T06:09:01;99945.41;;;10.85;66.66
49342;BME280;35210;41.606;-87.602;2023-04-25T06:11:30;99941.91;;;10.85;66.79
49342;BME280;35210;41.606;-87.602;2023-04-25T06:13:58;99943.41;;;10.89;66.74
49342;BME280;35210;41.606;-87.602;2023-04-25T06:16:28;99928.28;;;10.91;66.73
49342;BME280;35210;41.606;-87.602;2023-04-25T06:18:56;99921.09;;;10.93;66.39
49342;BME280;35210;41.606;-87.602;2023-04-25T06:21:24;99917.81;;;10.90;66.09
49342;BME280;35210;41.606;-87.602;2023-04-25T06:23:53;99910.63;;;10.92;66.00
49342;BME280;35210;41.606;-87.602;2023-04-25T06:26:21;99912.44;;;10.91;66.49
49342;BME280;35210;41.606;-87.602;2023-04-25T06:28:50;99919.41;;;10.92;67.14
49342;BME280;35210;41.606;-87.602;2023-04-25T06:31:18;99917.81;;;10.90;67.33
49342;BME280;35210;41.606;-87.602;2023-04-25T06:33:47;99926.06;;;10.85;66.86
49342;BME280;35210;41.606;-87.602;2023-04-25T06:36:15;99917.94;;;10.88;67.49
49342;BME280;35210;41.606;-87.602;2023-04-25T06:38:43;99918.78;;;10.89;67.06
49342;BME280;35210;41.606;-87.602;2023-04-25T06:41:11;99926.59;;;10.90;67.30
49342;BME280;35210;41.606;-87.602;2023-04-25T06:43:39;99921.31;;;10.90;67.95
49342;BME280;35210;41.606;-87.602;2023-04-25T06:46:07;99924.69;;;10.92;68.08
49342;BME280;35210;41.606;-87.602;2023-04-25T06:48:35;99930.81;;;10.93;68.53
49342;BME280;35210;41.606;-87.602;2023-04-25T06:51:06;99937.78;;;10.94;68.53
49342;BME280;35210;41.606;-87.602;2023-04-25T06:53:34;99934.19;;;10.95;68.86
49342;BME280;35210;41.606;-87.602;2023-04-25T06:56:02;99940.31;;;10.95;69.39
49342;BME280;35210;41.606;-87.602;2023-04-25T06:58:30;99938.53;;;10.96;69.28
49342;BME280;35210;41.606;-87.602;2023-04-25T07:00:59;99933.88;;;10.99;69.06
49342;BME280;35210;41.606;-87.602;2023-04-25T07:03:27;99935.66;;;10.99;69.32
49342;BME280;35210;41.606;-87.602;2023-04-25T07:05:56;99939.16;;;10.99;69.01
49342;BME280;35210;41.606;-87.602;2023-04-25T07:08:26;99947.19;;;10.98;69.98
49342;BME280;35210;41.606;-87.602;2023-04-25T07:10:54;99932.19;;;10.98;68.82
49342;BME280;35210;41.606;-87.602;2023-04-25T07:13:22;99940.97;;;10.99;69.42
49342;BME280;35210;41.606;-87.602;2023-04-25T07:15:50;99939.16;;;10.99;68.53
49342;BME280;35210;41.606;-87.602;2023-04-25T07:18:18;99942.75;;;10.98;69.11
49342;BME280;35210;41.606;-87.602;2023-04-25T07:20:46;99957.44;;;10.90;70.34
49342;BME280;35210;41.606;-87.602;2023-04-25T07:23:14;99949.00;;;10.72;66.28
49342;BME280;35210;41.606;-87.602;2023-04-25T07:25:44;99961.47;;;10.57;61.63
49342;BME280;35210;41.606;-87.602;2023-04-25T07:28:12;99962.72;;;10.51;62.87
49342;BME280;35210;41.606;-87.602;2023-04-25T07:30:40;99966.53;;;10.47;65.78
49342;BME280;35210;41.606;-87.602;2023-04-25T07:33:08;99963.34;;;10.42;66.36
49342;BME280;35210;41.606;-87.602;2023-04-25T07:35:37;99953.53;;;10.44;66.86
49342;BME280;35210;41.606;-87.602;2023-04-25T07:38:05;99950.91;;;10.44;67.58
49342;BME280;35210;41.606;-87.602;2023-04-25T07:40:34;99946.91;;;10.39;67.88
49342;BME280;35210;41.606;-87.602;2023-04-25T07:43:04;99945.84;;;10.41;67.04
49342;BME280;35210;41.606;-87.602;2023-04-25T07:45:32;99952.59;;;10.45;67.70
49342;BME280;35210;41.606;-87.602;2023-04-25T07:48:00;99958.50;;;10.49;68.36
49342;BME280;35210;41.606;-87.602;2023-04-25T07:50:29;99958.19;;;10.53;69.39
49342;BME280;35210;41.606;-87.602;2023-04-25T07:52:57;99966.22;;;10.52;69.76
49342;BME280;35210;41.606;-87.602;2023-04-25T07:55:25;99951.44;;;10.49;70.88
49342;BME280;35210;41.606;-87.602;2023-04-25T07:57:53;99952.38;;;10.48;70.97
49342;BME280;35210;41.606;-87.602;2023-04-25T08:00:23;99957.88;;;10.33;70.63
49342;BME280;35210;41.606;-87.602;2023-04-25T08:02:51;99946.50;;;10.05;69.84
49342;BME280;35210;41.606;-87.602;2023-04-25T08:05:19;99934.44;;;9.88;72.82
49342;BME280;35210;41.606;-87.602;2023-04-25T08:07:48;99937.00;;;9.63;75.27
49342;BME280;35210;41.606;-87.602;2023-04-25T08:10:16;99940.69;;;9.61;75.51
49342;BME280;35210;41.606;-87.602;2023-04-25T08:12:44;99931.25;;;9.44;76.67
49342;BME280;35210;41.606;-87.602;2023-04-25T08:15:12;99920.44;;;9.34;79.24
49342;BME280;35210;41.606;-87.602;2023-04-25T08:17:42;99917.69;;;9.36;79.81
49342;BME280;35210;41.606;-87.602;2023-04-25T08:20:12;99908.41;;;9.30;82.22
49342;BME280;35210;41.606;-87.602;2023-04-25T08:22:40;99903.13;;;9.30;82.41
49342;BME280;35210;41.606;-87.602;2023-04-25T08:25:08;99894.72;;;9.38;82.52
49342;BME280;35210;41.606;-87.602;2023-04-25T08:27:36;99886.44;;;9.44;82.53
49342;BME280;35210;41.606;-87.602;2023-04-25T08:30:05;99901.50;;;9.42;83.13
49342;BME280;35210;41.606;-87.602;2023-04-25T08:32:35;99896.88;;;9.45;82.69
49342;BME280;35210;41.606;-87.602;2023-04-25T08:35:07;99913.97;;;9.52;83.38
49342;BME280;35210;41.606;-87.602;2023-04-25T08:37:35;99919.91;;;9.56;83.07
49342;BME280;35210;41.606;-87.602;2023-04-25T08:40:05;99919.50;;;9.62;83.19
49342;BME280;35210;41.606;-87.602;2023-04-25T08:42:33;99922.66;;;9.67;83.58
49342;BME280;35210;41.606;-87.602;2023-04-25T08:45:03;99913.19;;;9.77;83.95
49342;BME280;35210;41.606;-87.602;2023-04-25T08:47:33;99911.31;;;9.79;83.60
49342;BME280;35210;41.606;-87.602;2023-04-25T08:50:03;99908.66;;;9.79;84.18
49342;BME280;35210;41.606;-87.602;2023-04-25T08:52:36;99915.09;;;9.75;84.00
49342;BME280;35210;41.606;-87.602;2023-04-25T08:55:07;99913.41;;;9.74;85.07
49342;BME280;35210;41.606;-87.602;2023-04-25T08:57:37;99905.59;;;9.73;85.16
49342;BME280;35210;41.606;-87.602;2023-04-25T09:00:07;99895.56;;;9.78;85.26
49342;BME280;35210;41.606;-87.602;2023-04-25T09:02:35;99898.66;;;9.84;84.50
49342;BME280;35210;41.606;-87.602;2023-04-25T09:05:03;99905.81;;;9.82;84.64
49342;BME280;35210;41.606;-87.602;2023-04-25T09:07:34;99909.94;;;9.86;84.49
49342;BME280;35210;41.606;-87.602;2023-04-25T09:10:02;99910.69;;;9.88;84.85
49342;BME280;35210;41.606;-87.602;2023-04-25T09:12:32;99910.69;;;9.88;84.51
49342;BME280;35210;41.606;-87.602;2023-04-25T09:15:05;99912.59;;;9.86;85.24
49342;BME280;35210;41.606;-87.602;2023-04-25T09:17:33;99906.47;;;9.86;84.30
49342;BME280;35210;41.606;-87.602;2023-04-25T09:20:07;99906.38;;;9.87;84.93
49342;BME280;35210;41.606;-87.602;2023-04-25T09:22:37;99908.34;;;9.84;84.58
49342;BME280;35210;41.606;-87.602;2023-04-25T09:25:09;99909.75;;;9.89;85.01
49342;BME280;35210;41.606;-87.602;2023-04-25T09:27:49;99913.03;;;9.93;84.91
49342;BME280;35210;41.606;-87.602;2023-04-25T09:30:18;99916.91;;;9.87;84.96
49342;BME280;35210;41.606;-87.602;2023-04-25T09:32:47;99908.91;;;9.89;85.26
49342;BME280;35210;41.606;-87.602;2023-04-25T09:35:24;99907.09;;;9.89;85.66
49342;BME280;35210;41.606;-87.602;2023-04-25T09:37:55;99910.38;;;9.93;85.82
49342;BME280;35210;41.606;-87.602;2023-04-25T09:40:23;99898.16;;;9.92;85.53
49342;BME280;35210;41.606;-87.602;2023-04-25T09:42:51;99904.56;;;9.88;85.75
49342;BME280;35210;41.606;-87.602;2023-04-25T09:45:19;99898.44;;;9.87;84.63
49342;BME280;35210;41.606;-87.602;2023-04-25T09:47:48;99894.88;;;9.88;84.78
49342;BME280;35210;41.606;-87.602;2023-04-25T09:50:18;99901.41;;;9.83;84.67
49342;BME280;35210;41.606;-87.602;2023-04-25T09:53:04;99894.44;;;9.82;84.86
49342;BME280;35210;41.606;-87.602;2023-04-25T09:55:34;99895.38;;;9.81;85.33
49342;BME280;35210;41.606;-87.602;2023-04-25T09:58:05;99899.06;;;9.78;86.09
49342;BME280;35210;41.606;-87.602;2023-04-25T10:00:34;99904.34;;;9.78;85.99
49342;BME280;35210;41.606;-87.602;2023-04-25T10:03:02;99897.47;;;9.76;86.65
49342;BME280;35210;41.606;-87.602;2023-04-25T10:05:32;99895.47;;;9.79;86.11
49342;BME280;35210;41.606;-87.602;2023-04-25T10:08:06;99906.66;;;9.83;85.98
49342;BME280;35210;41.606;-87.602;2023-04-25T10:10:35;99899.59;;;9.83;86.27
49342;BME280;35210;41.606;-87.602;2023-04-25T10:13:05;99896.66;;;9.88;85.85
49342;BME280;35210;41.606;-87.602;2023-04-25T10:15:35;99896.56;;;9.89;85.63
49342;BME280;35210;41.606;-87.602;2023-04-25T10:18:03;99903.53;;;9.91;85.25
49342;BME280;35210;41.606;-87.602;2023-04-25T10:20:33;99907.09;;;9.89;84.73
49342;BME280;35210;41.606;-87.602;2023-04-25T10:23:11;99906.47;;;9.86;84.67
49342;BME280;35210;41.606;-87.602;2023-04-25T10:25:42;99900.34;;;9.85;85.33
49342;BME280;35210;41.606;-87.602;2023-04-25T10:28:10;99896.56;;;9.89;84.83
49342;BME280;35210;41.606;-87.602;2023-04-25T10:30:57;99891.28;;;9.89;83.66
49342;BME280;35210;41.606;-87.602;2023-04-25T10:33:33;99893.91;;;9.89;83.67
49342;BME280;35210;41.606;-87.602;2023-04-25T10:36:10;99891.91;;;9.80;84.17
49342;BME280;35210;41.606;-87.602;2023-04-25T10:38:40;99894.22;;;9.85;82.99
49342;BME280;35210;41.606;-87.602;2023-04-25T10:41:10;99887.25;;;9.84;83.48
49342;BME280;35210;41.606;-87.602;2023-04-25T10:43:40;99883.75;;;9.71;84.00
49342;BME280;35210;41.606;-87.602;2023-04-25T10:46:18;99886.16;;;9.61;84.92
49342;BME280;35210;41.606;-87.602;2023-04-25T10:48:48;99893.53;;;9.56;85.47
49342;BME280;35210;41.606;-87.602;2023-04-25T10:51:18;99874.03;;;9.59;84.88
49342;BME280;35210;41.606;-87.602;2023-04-25T10:53:57;99869.72;;;9.70;85.00
49342;BME280;35210;41.606;-87.602;2023-04-25T10:56:26;99875.81;;;9.58;85.45
49342;BME280;35210;41.606;-87.602;2023-04-25T10:59:07;99885.81;;;9.53;87.18
49342;BME280;35210;41.606;-87.602;2023-04-25T11:01:39;99888.66;;;9.50;87.49
49342;BME280;35210;41.606;-87.602;2023-04-25T11:04:19;99893.75;;;9.53;87.72
49342;BME280;35210;41.606;-87.602;2023-04-25T11:07:03;99894.59;;;9.53;88.00
49342;BME280;35210;41.606;-87.602;2023-04-25T11:09:35;99892.91;;;9.52;87.38
49342;BME280;35210;41.606;-87.602;2023-04-25T11:12:04;99899.84;;;9.53;87.32
49342;BME280;35210;41.606;-87.602;2023-04-25T11:14:32;99897.03;;;9.57;87.85
49342;BME280;35210;41.606;-87.602;2023-04-25T11:17:00;99889.75;;;9.60;87.08
49342;BME280;35210;41.606;-87.602;2023-04-25T11:19:30;99888.81;;;9.61;86.86
49342;BME280;35210;41.606;-87.602;2023-04-25T11:22:00;99892.09;;;9.65;86.80
49342;BME280;35210;41.606;-87.602;2023-04-25T11:24:28;99887.88;;;9.62;86.32
49342;BME280;35210;41.606;-87.602;2023-04-25T11:26:59;99895.78;;;9.62;86.14
49342;BME280;35210;41.606;-87.602;2023-04-25T11:29:28;99889.75;;;9.60;86.29
49342;BME280;35210;41.606;-87.602;2023-04-25T11:31:57;99895.22;;;9.57;86.80
49342;BME280;35210;41.606;-87.602;2023-04-25T11:34:26;99894.59;;;9.53;86.96
49342;BME280;35210;41.606;-87.602;2023-04-25T11:36:56;99888.16;;;9.58;86.93
49342;BME280;35210;41.606;-87.602;2023-04-25T11:39:26;99888.47;;;9.66;86.51
49342;BME280;35210;41.606;-87.602;2023-04-25T11:41:54;99892.69;;;9.68;85.91
49342;BME280;35210;41.606;-87.602;2023-04-25T11:44:25;99889.66;;;9.62;85.88
49342;BME280;35210;41.606;-87.602;2023-04-25T11:46:53;99895.22;;;9.57;85.98
49342;BME280;35210;41.606;-87.602;2023-04-25T11:49:22;99905.97;;;9.54;86.66
49342;BME280;35210;41.606;-87.602;2023-04-25T11:51:51;99910.19;;;9.57;87.09
49342;BME280;35210;41.606;-87.602;2023-04-25T11:54:19;99914.44;;;9.59;87.04
49342;BME280;35210;41.606;-87.602;2023-04-25T11:56:48;99923.31;;;9.71;86.88
49342;BME280;35210;41.606;-87.602;2023-04-25T11:59:16;99920.91;;;9.80;85.00
49342;BME280;35210;41.606;-87.602;2023-04-25T12:01:50;99912.03;;;9.81;83.97
49342;BME280;35210;41.606;-87.602;2023-04-25T12:04:19;99913.19;;;9.77;83.25
49342;BME280;35210;41.606;-87.602;2023-04-25T12:06:49;99909.81;;;9.75;83.87
49342;BME280;35210;41.606;-87.602;2023-04-25T12:09:18;99925.38;;;9.66;84.05
49342;BME280;35210;41.606;-87.602;2023-04-25T12:11:48;99925.91;;;9.58;85.02
49342;BME280;35210;41.606;-87.602;2023-04-25T12:14:23;99927.63;;;9.59;84.77
49342;BME280;35210;41.606;-87.602;2023-04-25T12:16:55;99933.00;;;9.58;84.52
49342;BME280;35210;41.606;-87.602;2023-04-25T12:19:24;99945.16;;;9.46;84.56
49342;BME280;35210;41.606;-87.602;2023-04-25T12:21:52;99946.69;;;9.36;85.78
49342;BME280;35210;41.606;-87.602;2023-04-25T12:24:22;99958.75;;;9.26;85.06
49342;BME280;35210;41.606;-87.602;2023-04-25T12:26:53;99950.50;;;9.17;86.14
49342;BME280;35210;41.606;-87.602;2023-04-25T12:29:23;99948.41;;;9.22;87.18
49342;BME280;35210;41.606;-87.602;2023-04-25T12:31:54;99947.97;;;9.16;86.77
49342;BME280;35210;41.606;-87.602;2023-04-25T12:34:23;99946.94;;;9.04;87.30
49342;BME280;35210;41.606;-87.602;2023-04-25T12:36:51;99946.75;;;8.93;87.04
49342;BME280;35210;41.606;-87.602;2023-04-25T12:39:21;99943.59;;;8.88;87.17
49342;BME280;35210;41.606;-87.602;2023-04-25T12:41:50;99943.31;;;8.78;86.95
49342;BME280;35210;41.606;-87.602;2023-04-25T12:44:18;99948.00;;;8.73;88.33
49342;BME280;35210;41.606;-87.602;2023-04-25T12:46:47;99952.53;;;8.71;88.81
49342;BME280;35210;41.606;-87.602;2023-04-25T12:49:17;99959.94;;;8.79;88.22
49342;BME280;35210;41.606;-87.602;2023-04-25T12:51:45;99950.38;;;8.78;88.27
49342;BME280;35210;41.606;-87.602;2023-04-25T12:54:13;99952.81;;;8.81;88.45